Terminal Aerodrome Forecast
Issued by NWS Albany, NY

Home | Current Version | Previous Version | Text Only | Print | Product List | Glossary On
Versions: 1 2 3 4 5 6 7 8 9 10 11 12 13 14 15 16 17 18 19
000
FTUS41 KALY 041733
TAFALB
TAF
KALB 041733Z 0418/0518 18007KT P6SM SCT100
     FM042100 21015G25KT P6SM SCT080 BKN250
     FM050300 20006KT P6SM VCSH BKN050 OVC080
     FM051000 32006KT P6SM SCT025 OVC050
     FM051500 34006KT P6SM BKN250=

USA.gov is the U.S. government's official web portal to all federal, state and local government web resources and services.